LFPG/CDG METAR and TAF weather

Enter ICAO airport designator
Station Type Date Time Source
LFPG METAR 2021/07/28 05:00 UTC NOAA

LFPG 280500Z 25005KT 9999 FEW046 BKN051 16/14 Q1012 NOSIG


Station Type Date Time Source
LFPG Decoded METAR 2021/07/28 05:00 UTC NOAA

Paris-Aeroport Charles De Gaulle, France (LFPG) 49-01N 002-32E 109M
Jul 28, 2021 - 01:00 AM EDT / 2021.07.28 0500 UTC
Wind: from the WSW (250 degrees) at 6 MPH (5 KT):0
Visibility: greater than 7 mile(s):0
Sky conditions: mostly cloudy
Temperature: 60 F (16 C)
Dew Point: 57 F (14 C)
Relative Humidity: 87%
Pressure (altimeter): 29.88 in. Hg (1012 hPa)
ob: LFPG 280500Z 25005KT 9999 FEW046 BKN051 16/14 Q1012 NOSIG
cycle: 5

Station Type Date Time Source
LFPG TAF 2021/07/27 21:49 UTC NOAA

TAF
AMD LFPG 272139Z 2721/2824 20010KT 9999 FEW009 BKN045 TX23/2815Z TN15/2805Z
TEMPO 2721/2723 BKN009 SCT030TCU PROB30
TEMPO 2721/2723 4000 SHRA BKN009 SCT030CB PROB40
TEMPO 2723/2807 BKN009
TEMPO 2812/2816 24015G25KT

Example: see airport list